Fargo, ND

06:03 AM CDT del 23 Luglio 2016 (GMT -0500)
Hector International | | Change Station

Alt. 899 ft 46.91 °N, 96.81 °W | Updated 10 minutes ago

Clear
Sereno
76 °F
Sembra 76 °F
N
10
Vento Variabile Vento da SE

Oggi
Massima -- | Minima -- °F
--% Possibilità di precip.
Ieri
Massima -- | Minima -- °F
Precip. -- in
Pressione 29.84 in
Visibilità 10.0 miglia
Nuvole Sereno
Punto di rugiada 61 °F
Umidità 60%
Piovosità 0.00 in
Spessore del manto nevoso Non disponibile.
5:56 AM 9:09 PM
Gobba a levante, 86% visible
METAR KFAR 231053Z 14009KT 10SM CLR 24/16 A2986 RMK AO2 SLP105 T02440161
Pressione 29.84 in
Visibilità 10.0 miglia
Nuvole Sereno
Punto di rugiada 61 °F
Umidità 60%
Piovosità 0.00 in
Spessore del manto nevoso Non disponibile.
5:56 AM 9:09 PM
Gobba a levante, 86% visible
METAR KFAR 231053Z 14009KT 10SM CLR 24/16 A2986 RMK AO2 SLP105 T02440161

10-Day Weather Forecast

Almanac

Astronomia

Jul. 23, 2016 Alba Tramonto
Ora attuale
Crepuscolo civile
Crepuscolo nautico
Crepuscolo astronomico
Luna
Estensione della luce visibile
Lunghezza del giorno
Tomorrow will be .
, % of the Moon is Illuminated

Gli estremi di oggi

State Highs State Lows

Community

WunderPhotos

Upload Photos

1,926,798 foto caricate!

WunderBlog® & News

Nearby

Qualità dell'aria

  Qualità dell'aria Indice AQ Inquinante
Not available.

Profondità neve

Stazione Profondità Altitudine

Attività sismica

Città  Distanza Mag. Data & Ora
Minimo Magnitudo Mostrato è 2.5.

Temperature delle acque costiere

Località Temperatura

Stations

Stazioni meteo nelle vicinanze

Ubicazione della stazione Temp. Raffreddamento del vento Punto di rugiada Umidità Vento Precip. Alt. Aggiornato Tipo
                   

Watches & Warnings

There are currently no watches in effect.